VEJS/IXW METAR and TAF weather

Enter ICAO airport designator
Station Type Date Time Source
VEJS METAR 2019/08/17 11:00 UTC NOAA

VEJS 171100Z 00000KT 1500 HZ SCT018 SCT025 BKN100 31/27 Q1001


Station Type Date Time Source
VEJS Decoded METAR 2019/08/17 11:00 UTC NOAA

Station name not available
Aug 17, 2019 - 07:00 AM EDT / 2019.08.17 1100 UTC
Wind: Calm:0
Visibility: less than 1 mile:0
Sky conditions: mostly cloudy
Weather: haze
Temperature: 87 F (31 C)
Heat index: 102.4 F (39.1 C):1
Dew Point: 80 F (27 C)
Relative Humidity: 79%
Pressure (altimeter): 29.56 in. Hg (1001 hPa)
ob: VEJS 171100Z 00000KT 1500 HZ SCT018 SCT025 BKN100 31/27 Q1001
cycle: 11

Station Type Date Time Source
VEJS TAF 2009/11/01 09:00 UTC NOAA

TAF VEJS 010900Z 0112/0121 36004KT 2500 HZ FEW020 SCT025 SCT100
BECMG 0116/0118 00000KT 2000 HZ FEW018 SCT
BECMG 0119/0121 00000KT 1600 BR

Example: see airport list